Tiempo atmosférico en la estación meteorológica de Albox, Almería (508 m.)



Fecha
DESCASC
Temp. máxima en grados centígrados (hora)
DESCASC
Temp. mínima en grados centígrados (hora)
DESCASC
Temp. media en grados centígrados
DESCASC
Racha de viento máxima en m/sg (hora)
DESCASC
Velocidad máxima media en intervalos de 10 minutos(hora)
DESCASC
Precipitaciones diarias en mm
DESCASC
Precipitaciones de 00:00 a 06:00 en mm
DESCASC
Precipitaciones de 06:00 a 12:00 en mm
DESCASC
Precipitaciones de 12:00 a 18:00 en mm
DESCASC
Precipitaciones de 18:00 a 24:00 en mm
DESCASC
21-02-2019 17 (15:10) 3.5 (07:40) 10.3 6.39 (14:50) 3.61 (16:50) 0 0 0 0 0
20-02-2019 17 (15:50) 4.2 (07:50) 10.6 6.94 (16:20) 3.89 (16:20) 0 0 0 0 0
19-02-2019 17.5 (15:20) 4.2 (08:00) 10.8 7.5 (14:00) 3.89 (14:00) 0 0 0 0 0
18-02-2019 16.7 (14:50) 4.5 (07:40) 10.6 8.06 (14:40) 5 (14:40) 0 0 0 0 0
17-02-2019 16.6 (15:10) 3.7 (00:00) 10.2 7.5 (15:30) 4.17 (15:30) 0 0 0 0 0
16-02-2019 17.1 (14:50) 4 (00:00) 10.6 8.61 (14:20) 5.83 (17:00) 0 0 0 0 0
15-02-2019 16.9 (15:20) 4.5 (00:00) 10.7 6.94 (13:10) 3.89 (13:20) 0 0 0 0 0
14-02-2019 17 (15:20) 4.4 (00:00) 10.7 8.33 (15:30) 4.44 (15:30) 0 0 0 0 0
13-02-2019 16.5 (14:50) 4.1 (00:00) 10.3 8.06 (15:40) 4.17 (16:40) 0 0 0 0 0
12-02-2019 15.9 (14:10) 7.2 (00:00) 11.5 7.5 (14:20) 4.72 (15:00) 0 0 0 0 0
11-02-2019 22.2 (14:50) 10.2 (00:00) 16.2 15 (02:00) 11.39 (02:00) 0 0 0 0 0
10-02-2019 20.6 (14:40) 6.4 (00:00) 13.5 16.11 (21:20) 11.39 (20:40) 0 0 0 0 0
09-02-2019 20.7 (14:40) 6.5 (00:00) 13.6 5.83 (15:40) 4.17 (16:30) 0 0 0 0 0
08-02-2019 21.1 (14:50) 6.9 (00:00) 14 6.11 (16:30) 4.44 (16:20) 0 0 0 0 0
07-02-2019 23.4 (15:20) 8 (00:00) 15.7 10.83 (13:40) 7.22 (14:00) 0 0 0 0 0
06-02-2019 22.1 (14:30) 6.8 (00:00) 14.5 7.22 (16:20) 5.28 (23:59) 0 0 0 0 0
05-02-2019 21.4 (15:30) 4.5 (00:00) 12.9 7.78 (16:10) 5 (16:10) 0 0 0 0 0
04-02-2019 17.9 (15:50) 3.3 (00:00) 10.6 11.94 (03:40) 7.78 (03:30) 0 0 0 0 0
03-02-2019 12.9 (16:50) 3.2 (00:00) 8 15 (09:30) 10.56 (15:30) 0 0 0 0 0
02-02-2019 11.8 (15:20) 4.1 (00:00) 8 25.28 (10:50) 17.78 (08:40) 0 0 0 0 0
01-02-2019 16.3 (10:40) 5.6 (00:00) 10.9 28.33 (20:30) 19.17 (20:30) 0.6 0 0 0 0.6
31-01-2019 19.1 (15:10) 11.3 (00:00) 15.2 22.78 (16:20) 14.44 (16:20) 0 0 0 0 0
30-01-2019 14.4 (16:40) 9.2 (00:00) 11.8 18.33 (21:00) 12.78 (21:00) 0 0 0 0 0
29-01-2019 16.6 (15:00) 8.5 (00:00) 12.6 20.28 (19:10) 13.06 (10:30) 0 0 0 0 0
28-01-2019 19.1 (15:00) 7.2 (00:00) 13.2 21.11 (18:30) 14.72 (17:40) 0 0 0 0 0
27-01-2019 17 (15:20) 8.4 (00:00) 12.7 21.11 (16:10) 15.28 (07:40) 0 0 0 0 0
26-01-2019 20.4 (15:20) 6 (00:00) 13.2 9.44 (00:50) 6.39 (00:50) 0 0 0 0 0
25-01-2019 21.1 (15:50) 10.1 (00:00) 15.6 12.5 (11:30) 9.17 (00:50) 0 0 0 0 0
24-01-2019 17 (14:30) 10.3 (00:00) 13.7 21.11 (05:00) 14.72 (02:40) 0 0 0 0 0

Gráficas

Temp. máximas Temp. mínimas Temp. medias Precipitaciones Rachas de viento máximas Velocidades máximas media en intervalos de 10 minutos

Datos horarios

Fecha y hora oficial Temperatura (ºC) Velocidad del viento (km/h) Dirección del viento Racha (km/h) Dirección de racha Precipitación (mm) Presión (hPa) Tendencia (hPa) Humedad (%)
2019-02-22 23:00:00 9.1 9 Noroeste 12 Noroeste 0 -- -- 51
2019-02-22 22:00:00 8.8 5 Norte 11 Noroeste 0 -- -- 55
2019-02-22 21:00:00 10.1 7 Noroeste 11 Noroeste 0 -- -- 52
2019-02-22 20:00:00 11.6 2 Norte 10 Este 0 -- -- 47
2019-02-22 19:00:00 13.6 9 Nordeste 17 Este 0 -- -- 42
2019-02-22 18:00:00 16.8 10 Este 24 Este 0 -- -- 42
2019-02-22 17:00:00 19.6 18 Este 23 Este 0 -- -- 36
2019-02-22 16:00:00 21.4 15 Este 22 Sudeste 0 -- -- 30
2019-02-22 15:00:00 21.8 8 Sudeste 20 Sudeste 0 -- -- 26
2019-02-22 14:00:00 21.2 7 Sudeste 19 Sur 0 -- -- 27
2019-02-22 13:00:00 19.6 7 Sudeste 14 Este 0 -- -- 27
2019-02-22 12:00:00 18 6 Sudeste 13 Este 0 -- -- 29
2019-02-22 11:00:00 14.7 3 Sur 7 Sudoeste 0 -- -- 40
2019-02-22 10:00:00 10.6 4 Sudoeste 12 Noroeste 0 -- -- 48
2019-02-22 09:00:00 7.8 11 Norte 14 Noroeste 0 -- -- 53
2019-02-22 08:00:00 4.8 8 Noroeste 14 Norte 0 -- -- 62
2019-02-22 07:00:00 5.1 8 Noroeste 15 Noroeste 0 -- -- 70
2019-02-22 06:00:00 5.2 10 Noroeste 13 Noroeste 0 -- -- 74
2019-02-22 05:00:00 5.3 4 Oeste 15 Norte 0 -- -- 73
2019-02-22 04:00:00 5.6 8 Noroeste 14 Noroeste 0 -- -- 75
2019-02-22 03:00:00 5.5 7 Norte 12 Noroeste 0 -- -- 79
2019-02-22 02:00:00 5.9 9 Noroeste 14 Noroeste 0 -- -- 82
2019-02-22 01:00:00 6.4 10 Noroeste 13 Noroeste 0 -- -- 82
2019-02-22 00:00:00 6.3 8 Noroeste 11 Noroeste 0 -- -- 84
2019-02-21 23:00:00 6.6 8 Noroeste 12 Noroeste 0 -- -- 83
2019-02-21 22:00:00 7.5 8 Noroeste 10 Noroeste 0 -- -- 82
2019-02-21 21:00:00 8 4 Nordeste 6 Nordeste 0 -- -- 81
2019-02-21 20:00:00 9.1 4 Este 8 Este 0 -- -- 76
2019-02-21 19:00:00 10.9 6 Este 19 Este 0 -- -- 68
2019-02-21 18:00:00 13.7 12 Este 19 Este 0 -- -- 60
2019-02-21 17:00:00 16 11 Sudeste 20 Sudeste 0 -- -- 54
2019-02-21 16:00:00 16.8 12 Este 21 Este 0 -- -- 50
2019-02-21 15:00:00 16.7 8 Sudeste 23 Este 0 -- -- 49
2019-02-21 14:00:00 16 9 Este 20 Este 0 -- -- 50
2019-02-21 13:00:00 14.9 8 Sudeste 18 Este 0 -- -- 56
2019-02-21 12:00:00 13.7 7 Sudeste 16 Sudeste 0 -- -- 60
2019-02-21 11:00:00 11.7 4 Sur 9 Sudeste 0 -- -- 66
2019-02-21 10:00:00 8.5 0 Calma 5 Oeste 0 -- -- 79
2019-02-21 09:00:00 5.6 4 Norte 8 Norte 0 -- -- 89
2019-02-21 08:00:00 4.2 6 Norte 11 Noroeste 0 -- -- 87
2019-02-21 07:00:00 4.3 9 Noroeste 14 Noroeste 0 -- -- 86
2019-02-21 06:00:00 5.3 12 Noroeste 15 Noroeste 0 -- -- 85
2019-02-21 05:00:00 5.6 10 Noroeste 13 Norte 0 -- -- 85
2019-02-21 04:00:00 5.9 5 Oeste 18 Norte 0 -- -- 83
2019-02-21 03:00:00 7 7 Noroeste 12 Norte 0 -- -- 82
2019-02-21 02:00:00 8.1 6 Noroeste 8 Oeste 0 -- -- 83
2019-02-21 01:00:00 8.6 6 Oeste 10 Oeste 0 -- -- 80
2019-02-21 00:00:00 9.4 5 Sudoeste 9 Sudoeste 0 -- -- 79
2019-02-20 23:00:00 9.7 4 Sudoeste 8 Sur 0 -- -- 80
2019-02-20 22:00:00 9.8 3 Sudeste 8 Sur 0 -- -- 82
2019-02-20 21:00:00 9.8 3 Sudeste 13 Sudeste 0 -- -- 82
2019-02-20 20:00:00 9.9 8 Este 14 Este 0 -- -- 80
2019-02-20 19:00:00 10.4 9 Este 20 Este 0 -- -- 76
2019-02-20 18:00:00 12.9 11 Sudeste 23 Sudeste 0 -- -- 66
2019-02-20 17:00:00 15.3 13 Sudeste 25 Este 0 -- -- 56
2019-02-20 16:00:00 16.9 11 Sudeste 21 Este 0 -- -- 48
2019-02-20 15:00:00 16.8 8 Sudeste 23 Este 0 -- -- 46
2019-02-20 14:00:00 15.8 7 Sudeste 19 Sudeste 0 -- -- 48
2019-02-20 13:00:00 14.9 7 Sudeste 15 Sudeste 0 -- -- 54
2019-02-20 12:00:00 13.5 8 Sudeste 14 Sudeste 0 -- -- 59
2019-02-20 11:00:00 11.9 4 Este 9 Este 0 -- -- 65
2019-02-20 10:00:00 8.5 4 Oeste 8 Norte 0 -- -- 75
2019-02-20 09:00:00 5.8 8 Norte 12 Noroeste 0 -- -- 79
2019-02-20 08:00:00 4.2 9 Noroeste 10 Noroeste 0 -- -- 84
2019-02-20 07:00:00 4.8 10 Noroeste 14 Noroeste 0 -- -- 82
2019-02-20 06:00:00 4.9 6 Noroeste 12 Norte 0 -- -- 85
2019-02-20 05:00:00 5.4 4 Nordeste 6 Norte 0 -- -- 89
2019-02-20 04:00:00 7.1 4 Noroeste 5 Oeste 0 -- -- 90
2019-02-20 03:00:00 6.8 2 Noroeste 6 Oeste 0 -- -- 90
2019-02-20 02:00:00 7.4 4 Noroeste 5 Sudeste 0 -- -- 87
2019-02-20 01:00:00 8 0 Calma 6 Sudeste 0 -- -- 83
2019-02-20 00:00:00 9.4 4 Este 6 Este 0 -- -- 84
2019-02-19 23:00:00 9.7 2 Sudeste 5 Este 0 -- -- 84
2019-02-19 22:00:00 10.2 0 Calma 6 Sur 0 -- -- 81
2019-02-19 21:00:00 10.6 3 Sudeste 6 Sudeste 0 -- -- 81
2019-02-19 20:00:00 10.6 3 Sudeste 12 Este 0 -- -- 79
2019-02-19 19:00:00 11 8 Este 16 Este 0 -- -- 74
2019-02-19 18:00:00 13.1 10 Sudeste 20 Este 0 -- -- 66
2019-02-19 17:00:00 15 11 Sudeste 23 Este 0 -- -- 57
2019-02-19 16:00:00 16.9 11 Sudeste 24 Este 0 -- -- 49
2019-02-19 15:00:00 17.3 12 Sudeste 23 Este 0 -- -- 44
2019-02-19 14:00:00 17.2 14 Este 27 Este 0 -- -- 42
2019-02-19 13:00:00 16.1 9 Este 18 Este 0 -- -- 38
2019-02-19 12:00:00 14.5 8 Sudeste 15 Sudeste 0 -- -- 41
2019-02-19 11:00:00 12.6 8 Este 12 Este 0 -- -- 45
2019-02-19 10:00:00 8.7 3 Nordeste 9 Noroeste 0 -- -- 62
2019-02-19 09:00:00 5.6 6 Oeste 12 Norte 0 -- -- 67
2019-02-19 08:00:00 4.2 8 Norte 12 Noroeste 0 -- -- 69
2019-02-19 07:00:00 4.9 9 Norte 13 Norte 0 -- -- 66
2019-02-19 06:00:00 4.6 5 Oeste 14 Noroeste 0 -- -- 71
2019-02-19 05:00:00 5.1 10 Norte 13 Noroeste 0 -- -- 70
2019-02-19 04:00:00 5 9 Noroeste 10 Noroeste 0 -- -- 73
2019-02-19 03:00:00 5.3 5 Norte 10 Noroeste 0 -- -- 70
2019-02-19 02:00:00 5.9 6 Norte 7 Noroeste 0 -- -- 82
2019-02-19 01:00:00 6.2 0 Calma 10 Noroeste 0 -- -- 75
2019-02-19 00:00:00 6.9 9 Norte 11 Norte 0 -- -- 75
2019-02-18 23:00:00 8.1 7 Noroeste 9 Noroeste 0 -- -- 80
2019-02-18 22:00:00 8.7 3 Norte 8 Norte 0 -- -- 89
2019-02-18 21:00:00 9.5 3 Noroeste 7 Noroeste 0 -- -- 87
2019-02-18 20:00:00 10.3 0 Calma 7 Sudeste 0 -- -- 83
2019-02-18 19:00:00 11.1 4 Sudeste 15 Sudeste 0 -- -- 80
2019-02-18 18:00:00 12.5 8 Sudeste 19 Este 0 -- -- 75
2019-02-18 17:00:00 14.8 11 Sudeste 23 Este 0 -- -- 62
2019-02-18 16:00:00 16.3 16 Este 28 Este 0 -- -- 50
2019-02-18 15:00:00 16.4 16 Este 29 Este 0 -- -- 49
2019-02-18 14:00:00 16.4 16 Este 27 Este 0 -- -- 50
2019-02-18 13:00:00 15.8 8 Sudeste 21 Este 0 -- -- 48
2019-02-18 12:00:00 13.7 4 Sur 12 Este 0 -- -- 54
2019-02-18 11:00:00 12 5 Sur 10 Sur 0 -- -- 60
2019-02-18 10:00:00 9.6 0 Calma 9 Noroeste 0 -- -- 65
2019-02-18 09:00:00 5.7 5 Noroeste 10 Noroeste 0 -- -- 75
2019-02-18 08:00:00 4.8 11 Noroeste 13 Noroeste 0 -- -- 77
2019-02-18 07:00:00 4.8 7 Norte 11 Norte 0 -- -- 76
2019-02-18 06:00:00 5.2 5 Norte 12 Noroeste 0 -- -- 72
2019-02-18 05:00:00 5.1 6 Noroeste 13 Noroeste 0 -- -- 68
2019-02-18 04:00:00 5.4 9 Noroeste 13 Noroeste 0 -- -- 64
2019-02-18 03:00:00 5.3 9 Noroeste 14 Noroeste 0 -- -- 70
2019-02-18 02:00:00 6.3 12 Noroeste 14 Noroeste 0 -- -- 82
2019-02-18 01:00:00 5.9 7 Norte 10 Norte 0 -- -- 92
2019-02-18 00:00:00 6.7 8 Norte 10 Norte 0 -- -- 90
2019-02-17 23:00:00 7.9 5 Norte 7 Norte 0 -- -- 91
2019-02-17 22:00:00 9 4 Este 8 Nordeste 0 -- -- 88
2019-02-17 21:00:00 8.8 6 Nordeste 9 Nordeste 0 -- -- 88
2019-02-17 20:00:00 9.6 5 Este 11 Este 0 -- -- 82
2019-02-17 19:00:00 11.3 6 Sudeste 18 Sudeste 0 -- -- 74
2019-02-17 18:00:00 14.2 10 Sudeste 26 Este 0 -- -- 62
2019-02-17 17:00:00 16.1 12 Este 24 Sudeste 0 -- -- 50
2019-02-17 16:00:00 16.5 12 Sudeste 27 Este 0 -- -- 49
2019-02-17 15:00:00 16.5 13 Sudeste 25 Este 0 -- -- 51
2019-02-17 14:00:00 15.8 10 Este 20 Este 0 -- -- 53
2019-02-17 13:00:00 13.9 4 Sur 14 Este 0 -- -- 58
2019-02-17 12:00:00 11.9 7 Este 13 Sudeste 0 -- -- 64
2019-02-17 11:00:00 9 5 Noroeste 7 Noroeste 0 -- -- 57
2019-02-17 10:00:00 6.8 3 Norte 8 Noroeste 0 -- -- 66
2019-02-17 09:00:00 5.2 4 Norte 9 Noroeste 0 -- -- 66
2019-02-17 08:00:00 4.2 5 Noroeste 10 Noroeste 0 -- -- 64
2019-02-17 07:00:00 4.9 10 Noroeste 17 Noroeste 0 -- -- 58
2019-02-17 06:00:00 4.4 7 Norte 13 Noroeste 0 -- -- 62
2019-02-17 05:00:00 3.8 5 Norte 8 Norte 0 -- -- 69
2019-02-17 04:00:00 4 4 Noroeste 10 Noroeste 0 -- -- 73
2019-02-17 03:00:00 4.1 4 Noroeste 9 Norte 0 -- -- 81
2019-02-17 02:00:00 4.9 6 Noroeste 10 Noroeste 0 -- -- 86
2019-02-17 01:00:00 5.3 7 Noroeste 8 Noroeste 0 -- -- 88
2019-02-17 00:00:00 5.5 4 Oeste 9 Oeste 0 -- -- 86
2019-02-16 23:00:00 6.5 6 Noroeste 8 Oeste 0 -- -- 84
2019-02-16 22:00:00 7.5 0 Calma 5 Noroeste 0 -- -- 84
2019-02-16 21:00:00 8.7 2 Oeste 6 Noroeste 0 -- -- 83
2019-02-16 20:00:00 9.6 0 Calma 9 Sudeste 0 -- -- 78
2019-02-16 19:00:00 11.4 6 Sudeste 27 Este 0 -- -- 70
2019-02-16 18:00:00 13.9 16 Este 27 Este 0 -- -- 54
2019-02-16 17:00:00 15.9 21 Este 31 Este 0 -- -- 48
2019-02-16 16:00:00 17 16 Este 27 Este 0 -- -- 47
2019-02-16 15:00:00 17 17 Este 31 Este 0 -- -- 46
2019-02-16 14:00:00 16.6 14 Este 30 Este 0 -- -- 48
2019-02-16 13:00:00 15.8 14 Este 24 Este 0 -- -- 50
2019-02-16 12:00:00 13.7 5 Sudeste 12 Sudeste 0 -- -- 56
2019-02-16 11:00:00 11.5 4 Sur 8 Sur 0 -- -- 64
2019-02-16 10:00:00 8.8 2 Sur 4 Sur 0 -- -- 75
2019-02-16 09:00:00 5.1 3 Norte 8 Norte 0 -- -- 83
2019-02-16 08:00:00 4.2 6 Norte 9 Norte 0 -- -- 81
2019-02-16 07:00:00 4.1 3 Norte 8 Norte 0 -- -- 83
2019-02-16 06:00:00 4.4 4 Norte 9 Norte 0 -- -- 82
2019-02-16 05:00:00 4.7 5 Norte 12 Noroeste 0 -- -- 83
2019-02-16 04:00:00 4.6 7 Noroeste 10 Noroeste 0 -- -- 88
2019-02-16 03:00:00 4.9 7 Noroeste 12 Noroeste 0 -- -- 89
2019-02-16 02:00:00 5.9 6 Noroeste 9 Noroeste 0 -- -- 91
2019-02-16 01:00:00 6.1 2 Nordeste 6 Noroeste 0 -- -- 89
2019-02-16 00:00:00 7.1 6 Noroeste 8 Noroeste 0 -- -- 90
2019-02-15 23:00:00 7.3 5 Noroeste 9 Noroeste 0 -- -- 90
2019-02-15 22:00:00 7.8 5 Norte 9 Norte 0 -- -- 88
2019-02-15 21:00:00 8.4 4 Nordeste 6 Este 0 -- -- 88
2019-02-15 20:00:00 9.4 4 Este 8 Este 0 -- -- 83
2019-02-15 19:00:00 11.1 6 Este 15 Sudeste 0 -- -- 75
2019-02-15 18:00:00 13.6 8 Sudeste 23 Sudeste 0 -- -- 66
2019-02-15 17:00:00 15.7 13 Sudeste 23 Este 0 -- -- 58
2019-02-15 16:00:00 16.8 12 Este 23 Este 0 -- -- 52
2019-02-15 15:00:00 16.7 10 Sudeste 21 Este 0 -- -- 51
2019-02-15 14:00:00 16 11 Este 25 Este 0 -- -- 52
2019-02-15 13:00:00 15 12 Este 20 Este 0 -- -- 57
2019-02-15 12:00:00 13.6 7 Sur 15 Este 0 -- -- 61
2019-02-15 11:00:00 11.5 4 Sudeste 8 Sudeste 0 -- -- 69
2019-02-15 10:00:00 8.7 3 Sudoeste 9 Norte 0 -- -- 79
2019-02-15 09:00:00 5.8 7 Noroeste 13 Noroeste 0 -- -- 85
2019-02-15 08:00:00 4.7 10 Noroeste 13 Noroeste 0 -- -- 87
2019-02-15 07:00:00 5 7 Norte 12 Noroeste 0 -- -- 91
2019-02-15 06:00:00 4.9 7 Norte 11 Noroeste 0 -- -- 90
2019-02-15 05:00:00 5.5 2 Norte 8 Nordeste 0 -- -- 91
2019-02-15 04:00:00 6.4 3 Nordeste 6 Sudoeste 0 -- -- 87
2019-02-15 03:00:00 7.5 3 Sudoeste 6 Sudoeste 0 -- -- 81
2019-02-15 02:00:00 8.5 3 Sudoeste 8 Sur 0 -- -- 82
2019-02-15 01:00:00 8.8 3 Sur 8 Sudeste 0 -- -- 81
2019-02-15 00:00:00 9.3 3 Sudeste 9 Sudeste 0 -- -- 80
2019-02-14 23:00:00 10 4 Sur 8 Sur 0 -- -- 83
2019-02-14 22:00:00 10.2 2 Sudeste 6 Sudeste 0 -- -- 82
2019-02-14 21:00:00 10.2 4 Sudeste 10 Sudeste 0 -- -- 81
2019-02-14 20:00:00 10.5 7 Sudeste 15 Este 0 -- -- 78
2019-02-14 19:00:00 10.9 8 Sudeste 19 Sudeste 0 -- -- 75
2019-02-14 18:00:00 13 11 Sudeste 26 Este 0 -- -- 65
2019-02-14 17:00:00 15.5 14 Sudeste 26 Sudeste 0 -- -- 57
2019-02-14 16:00:00 16.6 13 Este 30 Sudeste 0 -- -- 50
2019-02-14 15:00:00 16.7 14 Este 28 Sudeste 0 -- -- 45
2019-02-14 14:00:00 16.4 13 Este 26 Este 0 -- -- 47
2019-02-14 13:00:00 15.3 13 Sudeste 22 Este 0 -- -- 49
2019-02-14 12:00:00 13.6 6 Sudeste 15 Este 0 -- -- 51
2019-02-14 11:00:00 11.4 6 Sur 12 Sur 0 -- -- 60
2019-02-14 10:00:00 8.8 0 Calma 8 Noroeste 0 -- -- 67
2019-02-14 09:00:00 5.4 7 Noroeste 13 Noroeste 0 -- -- 77
2019-02-14 08:00:00 4.5 9 Noroeste 13 Noroeste 0 -- -- 78
2019-02-14 07:00:00 5.5 11 Noroeste 15 Noroeste 0 -- -- 75
2019-02-14 06:00:00 6.9 11 Noroeste 14 Noroeste 0 -- -- 71
2019-02-14 05:00:00 7.4 8 Noroeste 13 Norte 0 -- -- 70
2019-02-14 04:00:00 7.5 10 Nordeste 20 Nordeste 0 -- -- 72
2019-02-14 03:00:00 7.2 4 Norte 14 Nordeste 0 -- -- 79
2019-02-14 02:00:00 6 5 Nordeste 14 Nordeste 0 -- -- 85
2019-02-14 01:00:00 4.7 6 Nordeste 8 Nordeste 0 -- -- 86
2019-02-14 00:00:00 5.2 5 Norte 8 Norte 0 -- -- 83
2019-02-13 23:00:00 6.4 6 Norte 8 Norte 0 -- -- 84
2019-02-13 22:00:00 8.5 3 Nordeste 6 Este 0 -- -- 79
2019-02-13 21:00:00 9.6 4 Sudeste 10 Sudeste 0 -- -- 77
2019-02-13 20:00:00 9.9 5 Sudeste 15 Este 0 -- -- 75
2019-02-13 19:00:00 10.3 9 Sudeste 19 Este 0 -- -- 73
2019-02-13 18:00:00 12.5 11 Sudeste 23 Este 0 -- -- 63
2019-02-13 17:00:00 14.9 13 Sudeste 25 Este 0 -- -- 54
2019-02-13 16:00:00 16.2 14 Sudeste 29 Este 0 -- -- 50
2019-02-13 15:00:00 16.4 11 Este 22 Este 0 -- -- 41
2019-02-13 14:00:00 15.8 10 Sudeste 19 Este 0 -- -- 43
2019-02-13 13:00:00 14.1 9 Este 18 Este 0 -- -- 51
2019-02-13 12:00:00 12.9 8 Este 14 Este 0 -- -- 59
2019-02-13 11:00:00 10.1 6 Nordeste 13 Nordeste 0 -- -- 72
2019-02-13 10:00:00 8.4 5 Noroeste 12 Noroeste 0 -- -- 79
2019-02-13 09:00:00 6 6 Noroeste 13 Noroeste 0 -- -- 83
2019-02-13 08:00:00 5.4 10 Noroeste 12 Noroeste 0 -- -- 82
2019-02-13 07:00:00 5.2 8 Noroeste 12 Norte 0 -- -- 84
2019-02-13 06:00:00 4.1 4 Noroeste 12 Norte 0 -- -- 86
2019-02-13 05:00:00 4.4 9 Norte 12 Norte 0 -- -- 87
2019-02-13 04:00:00 5 9 Norte 11 Norte 0 -- -- 88
2019-02-13 03:00:00 6.7 5 Norte 8 Norte 0 -- -- 88
2019-02-13 02:00:00 7.1 3 Norte 5 Nordeste 0 -- -- 90
2019-02-13 01:00:00 7.3 3 Norte 4 Norte 0 -- -- 90
2019-02-13 00:00:00 7.2 3 Nordeste 6 Nordeste 0 -- -- 91
2019-02-12 23:00:00 7.8 4 Norte 5 Norte 0 -- -- 87
2019-02-12 22:00:00 8.9 3 Este 10 Este 0 -- -- 86
2019-02-12 21:00:00 8.6 6 Este 11 Este 0 -- -- 84
2019-02-12 20:00:00 8.9 5 Este 9 Sudeste 0 -- -- 76
2019-02-12 19:00:00 10.5 7 Sudeste 17 Sudeste 0 -- -- 69
2019-02-12 18:00:00 12.5 10 Sudeste 23 Este 0 -- -- 66
2019-02-12 17:00:00 14.2 11 Sudeste 26 Este 0 -- -- 58
2019-02-12 16:00:00 15.2 10 Sudeste 22 Este 0 -- -- 52
2019-02-12 15:00:00 14.2 17 Este 27 Este 0 -- -- 56
2019-02-12 14:00:00 15.6 11 Sudeste 23 Este 0 -- -- 50
2019-02-12 13:00:00 14.4 7 Este 16 Este 0 -- -- 50
2019-02-12 12:00:00 13.2 11 Sudeste 20 Sudeste 0 -- -- 53
2019-02-12 11:00:00 11.6 9 Sudeste 18 Este 0 -- -- 62
2019-02-12 10:00:00 10.2 4 Este 9 Este 0 -- -- 79
2019-02-12 09:00:00 9.7 4 Sudeste 8 Sudeste 0 -- -- 84
2019-02-12 08:00:00 9.7 4 Sudeste 6 Sudeste 0 -- -- 83
2019-02-12 07:00:00 9.8 0 Calma 2 Oeste 0 -- -- 81
2019-02-12 06:00:00 9.9 0 Calma 8 Este 0 -- -- 85
2019-02-12 05:00:00 9.6 4 Este 19 Nordeste 0 -- -- 85
2019-02-12 04:00:00 10.1 9 Este 17 Este 0 -- -- 85
2019-02-12 03:00:00 10.5 6 Sudeste 12 Sudeste 0 -- -- 83
2019-02-12 02:00:00 10.9 4 Sudeste 7 Sudeste 0 -- -- 86
2019-02-12 01:00:00 10.8 3 Sudeste 12 Este 0 -- -- 84
2019-02-12 00:00:00 10.6 4 Este 9 Este 0 -- -- 85
2019-02-11 23:00:00 10.9 6 Este 12 Este 0 -- -- 80
2019-02-11 22:00:00 10.9 4 Nordeste 11 Este 0 -- -- 70
2019-02-11 21:00:00 11.9 5 Este 9 Nordeste 0 -- -- 67
2019-02-11 20:00:00 12.6 3 Nordeste 10 Sudeste 0 -- -- 64
2019-02-11 19:00:00 13.4 5 Este 14 Nordeste 0 -- -- 59
2019-02-11 18:00:00 15 10 Este 22 Este 0 -- -- 55
2019-02-11 17:00:00 15.7 12 Este 27 Este 0 -- -- 55
2019-02-11 16:00:00 16.9 19 Este 35 Este 0 -- -- 50
2019-02-11 15:00:00 21.8 13 Sudeste 27 Sudeste 0 -- -- 40
2019-02-11 14:00:00 21 9 Sur 20 Sudoeste 0 -- -- 39
2019-02-11 13:00:00 19.6 15 Oeste 28 Oeste 0 -- -- 42
2019-02-11 12:00:00 17.8 22 Oeste 31 Oeste 0 -- -- 47
2019-02-11 11:00:00 16.3 18 Oeste 28 Oeste 0 -- -- 52
2019-02-11 10:00:00 13.4 13 Oeste 19 Oeste 0 -- -- 63
2019-02-11 09:00:00 11 15 Oeste 28 Noroeste 0 -- -- 69
2019-02-11 08:00:00 10.2 19 Noroeste 26 Oeste 0 -- -- 73
2019-02-11 07:00:00 11.2 17 Oeste 25 Noroeste 0 -- -- 70
2019-02-11 06:00:00 11 14 Noroeste 32 Oeste 0 -- -- 69
2019-02-11 05:00:00 11.3 18 Noroeste 35 Oeste 0 -- -- 68
2019-02-11 04:00:00 11.7 28 Oeste 39 Oeste 0 -- -- 66
2019-02-11 03:00:00 11.8 29 Oeste 51 Oeste 0 -- -- 64
2019-02-11 02:00:00 11.9 41 Oeste 54 Oeste 0 -- -- 63
2019-02-11 01:00:00 11.9 34 Oeste 49 Oeste 0 -- -- 62
2019-02-11 00:00:00 11.7 34 Oeste 48 Oeste 0 -- -- 61
2019-02-10 23:00:00 11.3 16 Oeste 52 Oeste 0 -- -- 59
2019-02-10 22:00:00 11.6 32 Oeste 58 Oeste 0 -- -- 57
2019-02-10 21:00:00 11.7 33 Oeste 54 Sudoeste 0 -- -- 56
2019-02-10 20:00:00 11.7 36 Oeste 54 Oeste 0 -- -- 56
2019-02-10 19:00:00 12.8 24 Oeste 41 Oeste 0 -- -- 53
2019-02-10 18:00:00 14.5 27 Oeste 52 Oeste 0 -- -- 47
2019-02-10 17:00:00 18.7 26 Noroeste 41 Oeste 0 -- -- 34
2019-02-10 16:00:00 20.3 28 Oeste 48 Oeste 0 -- -- 29
2019-02-10 15:00:00 20.3 34 Oeste 49 Oeste 0 -- -- 24
2019-02-10 14:00:00 20.4 28 Oeste 42 Oeste 0 -- -- 23
2019-02-10 13:00:00 18.6 30 Sudoeste 40 Oeste 0 -- -- 39
2019-02-10 12:00:00 17.4 23 Sudoeste 33 Sudoeste 0 -- -- 42
2019-02-10 11:00:00 14.5 24 Sudoeste 32 Sudoeste 0 -- -- 48
2019-02-10 10:00:00 11.8 21 Sudoeste 29 Sudoeste 0 -- -- 49
2019-02-10 09:00:00 9.8 26 Sudoeste 34 Sudoeste 0 -- -- 51
2019-02-10 08:00:00 6.5 13 Oeste 19 Oeste 0 -- -- 56
2019-02-10 07:00:00 7.2 5 Noroeste 10 Noroeste 0 -- -- 54
2019-02-10 06:00:00 8.1 4 Norte 12 Oeste 0 -- -- 55
2019-02-10 05:00:00 7.9 10 Oeste 15 Oeste 0 -- -- 55
2019-02-10 04:00:00 9.3 9 Oeste 17 Oeste 0 -- -- 51
2019-02-10 03:00:00 8.7 13 Oeste 20 Oeste 0 -- -- 55
2019-02-10 02:00:00 9.6 14 Oeste 20 Oeste 0 -- -- 50
2019-02-10 01:00:00 9.7 11 Oeste 19 Oeste 0 -- -- 50
2019-02-10 00:00:00 9.6 10 Noroeste 12 Noroeste 0 -- -- 51
2019-02-09 23:00:00 9.8 8 Noroeste 13 Noroeste 0 -- -- 55
2019-02-09 22:00:00 9.4 7 Norte 10 Noroeste 0 -- -- 67
2019-02-09 21:00:00 10.8 8 Noroeste 10 Noroeste 0 -- -- 65
2019-02-09 20:00:00 11.5 4 Noroeste 5 Oeste 0 -- -- 63
2019-02-09 19:00:00 13.7 3 Sur 11 Este 0 -- -- 54
2019-02-09 18:00:00 16 8 Este 17 Este 0 -- -- 49
2019-02-09 17:00:00 18.3 12 Este 21 Este 0 -- -- 41
2019-02-09 16:00:00 20.3 10 Sudeste 21 Este 0 -- -- 38
2019-02-09 15:00:00 20.5 11 Sudeste 19 Sudeste 0 -- -- 35
2019-02-09 14:00:00 20.3 8 Este 17 Sudeste 0 -- -- 35
2019-02-09 13:00:00 19.3 8 Este 17 Este 0 -- -- 36
2019-02-09 12:00:00 18.3 5 Este 13 Este 0 -- -- 41
2019-02-09 11:00:00 15.3 4 Sur 7 Sur 0 -- -- 44
2019-02-09 10:00:00 11.2 3 Oeste 8 Oeste 0 -- -- 56
2019-02-09 09:00:00 7.2 6 Oeste 14 Noroeste 0 -- -- 65
2019-02-09 08:00:00 7.8 10 Noroeste 16 Noroeste 0 -- -- 60
2019-02-09 07:00:00 8.1 10 Norte 14 Noroeste 0 -- -- 60
2019-02-09 06:00:00 8.1 9 Noroeste 13 Noroeste 0 -- -- 60
2019-02-09 05:00:00 7.6 5 Noroeste 11 Noroeste 0 -- -- 64
2019-02-09 04:00:00 7.2 9 Noroeste 12 Noroeste 0 -- -- 65
2019-02-09 03:00:00 8.8 8 Noroeste 15 Noroeste 0 -- -- 59
2019-02-09 02:00:00 9 4 Norte 9 Noroeste 0 -- -- 60
2019-02-09 01:00:00 8.3 8 Noroeste 11 Noroeste 0 -- -- 64
2019-02-09 00:00:00 8 3 Norte 6 Noroeste 0 -- -- 70
2019-02-08 23:00:00 8.6 5 Norte 7 Noroeste 0 -- -- 74
2019-02-08 22:00:00 9.3 4 Noroeste 8 Noroeste 0 -- -- 76
2019-02-08 21:00:00 9.5 3 Oeste 5 Oeste 0 -- -- 75
2019-02-08 20:00:00 10.6 3 Oeste 5 Oeste 0 -- -- 75
2019-02-08 19:00:00 12.3 4 Sudeste 12 Este 0 -- -- 65
2019-02-08 18:00:00 15.1 9 Este 20 Sudeste 0 -- -- 57
2019-02-08 17:00:00 17.8 14 Este 22 Este 0 -- -- 54
2019-02-08 16:00:00 20.2 12 Este 20 Este 0 -- -- 44
2019-02-08 15:00:00 21 7 Sudeste 13 Sudoeste 0 -- -- 35
2019-02-08 14:00:00 20 5 Sudeste 14 Sudeste 0 -- -- 36
2019-02-08 13:00:00 18.3 6 Este 12 Sudeste 0 -- -- 39
2019-02-08 12:00:00 16.9 4 Sur 9 Sudeste 0 -- -- 43
2019-02-08 11:00:00 14.2 4 Sur 7 Este 0 -- -- 50
2019-02-08 10:00:00 11.6 4 Sudeste 10 Nordeste 0 -- -- 57
2019-02-08 09:00:00 7.9 6 Noroeste 10 Noroeste 0 -- -- 66
2019-02-08 08:00:00 7.4 6 Noroeste 14 Noroeste 0 -- -- 67
2019-02-08 07:00:00 7.9 11 Noroeste 15 Noroeste 0 -- -- 66
2019-02-08 06:00:00 8.2 12 Noroeste 15 Noroeste 0 -- -- 64
2019-02-08 05:00:00 7.5 6 Noroeste 14 Noroeste 0 -- -- 66
2019-02-08 04:00:00 7.5 6 Oeste 13 Noroeste 0 -- -- 64
2019-02-08 03:00:00 8.9 5 Norte 13 Norte 0 -- -- 60
2019-02-08 02:00:00 9.1 9 Noroeste 14 Noroeste 0 -- -- 58
2019-02-08 01:00:00 9.9 12 Noroeste 14 Noroeste 0 -- -- 53
2019-02-08 00:00:00 9.4 6 Oeste 18 Noroeste 0 -- -- 56
2019-02-07 23:00:00 9.6 6 Noroeste 13 Norte 0 -- -- 56
2019-02-07 22:00:00 11.2 9 Norte 14 Noroeste 0 -- -- 54
2019-02-07 21:00:00 11.4 9 Noroeste 13 Noroeste 0 -- -- 58
2019-02-07 20:00:00 13 5 Norte 9 Noroeste 0 -- -- 53
2019-02-07 19:00:00 14.4 4 Nordeste 13 Este 0 -- -- 47
2019-02-07 18:00:00 17.3 7 Este 21 Este 0 -- -- 42
2019-02-07 17:00:00 19.9 13 Este 26 Este 0 -- -- 37
2019-02-07 16:00:00 21.4 17 Este 28 Este 0 -- -- 34
2019-02-07 15:00:00 22.9 16 Sudoeste 36 Sudoeste 0 -- -- 26
2019-02-07 14:00:00 21.2 26 Sudoeste 39 Sudoeste 0 -- -- 29
2019-02-07 13:00:00 20.7 10 Sudoeste 27 Sudoeste 0 -- -- 36
2019-02-07 12:00:00 18.6 23 Sudoeste 30 Sudoeste 0 -- -- 39
2019-02-07 11:00:00 15.8 6 Sudoeste 10 Sudoeste 0 -- -- 41
2019-02-07 10:00:00 12.6 3 Sudoeste 13 Noroeste 0 -- -- 50
2019-02-07 09:00:00 8.5 8 Noroeste 12 Noroeste 0 -- -- 56
2019-02-07 08:00:00 8.2 5 Noroeste 11 Norte 0 -- -- 55
2019-02-07 07:00:00 9.2 9 Norte 15 Noroeste 0 -- -- 51
2019-02-07 06:00:00 9.2 10 Noroeste 13 Noroeste 0 -- -- 52
2019-02-07 05:00:00 9.4 10 Noroeste 17 Oeste 0 -- -- 52
2019-02-07 04:00:00 11 12 Noroeste 19 Noroeste 0 -- -- 48
2019-02-07 03:00:00 10 13 Noroeste 18 Noroeste 0 -- -- 52
2019-02-07 02:00:00 10.6 13 Noroeste 22 Oeste 0 -- -- 51
2019-02-07 01:00:00 12.1 14 Oeste 32 Oeste 0 -- -- 47
2019-02-07 00:00:00 11.4 19 Oeste 26 Oeste 0 -- -- 52
2019-02-06 23:00:00 10.3 15 Noroeste 18 Noroeste 0 -- -- 57
2019-02-06 22:00:00 9.9 7 Noroeste 12 Noroeste 0 -- -- 59
2019-02-06 21:00:00 11 9 Noroeste 12 Noroeste 0 -- -- 56
2019-02-06 20:00:00 12.1 5 Oeste 8 Nordeste 0 -- -- 52
2019-02-06 19:00:00 14 5 Nordeste 15 Nordeste 0 -- -- 46
2019-02-06 18:00:00 16.5 10 Este 22 Este 0 -- -- 41
2019-02-06 17:00:00 18.3 16 Este 26 Este 0 -- -- 39
2019-02-06 16:00:00 20.2 17 Este 24 Este 0 -- -- 34
2019-02-06 15:00:00 21.7 13 Este 22 Este 0 -- -- 33
2019-02-06 14:00:00 21.5 8 Este 16 Sudeste 0 -- -- 34
2019-02-06 13:00:00 20.4 5 Sudeste 12 Sur 0 -- -- 35
2019-02-06 12:00:00 18.5 4 Sudeste 8 Sudeste 0 -- -- 39
2019-02-06 11:00:00 15.4 3 Sur 5 Sur 0 -- -- 48
2019-02-06 10:00:00 11.5 2 Sur 9 Oeste 0 -- -- 58
2019-02-06 09:00:00 8.4 5 Noroeste 17 Noroeste 0 -- -- 64
2019-02-06 08:00:00 7.1 11 Noroeste 14 Noroeste 0 -- -- 67
2019-02-06 07:00:00 8.1 10 Noroeste 14 Noroeste 0 -- -- 63
2019-02-06 06:00:00 7.8 13 Noroeste 14 Noroeste 0 -- -- 64
2019-02-06 05:00:00 8 9 Noroeste 13 Noroeste 0 -- -- 63
2019-02-06 04:00:00 8.4 9 Noroeste 12 Noroeste 0 -- -- 60
2019-02-06 03:00:00 8 9 Noroeste 12 Noroeste 0 -- -- 62
2019-02-06 02:00:00 7.7 8 Noroeste 12 Noroeste 0 -- -- 62
2019-02-06 01:00:00 7.7 5 Noroeste 16 Noroeste 0 -- -- 61
2019-02-06 00:00:00 8.9 12 Noroeste 15 Noroeste 0 -- -- 56
2019-02-05 23:00:00 9.6 10 Noroeste 12 Noroeste 0 -- -- 53
2019-02-05 22:00:00 9.1 7 Noroeste 11 Noroeste 0 -- -- 53
2019-02-05 21:00:00 10.3 7 Noroeste 14 Noroeste 0 -- -- 47
2019-02-05 20:00:00 11.3 10 Norte 13 Noroeste 0 -- -- 43
2019-02-05 19:00:00 12.3 8 Nordeste 15 Este 0 -- -- 41
2019-02-05 18:00:00 15.4 10 Este 25 Este 0 -- -- 35
2019-02-05 17:00:00 18.1 14 Este 28 Este 0 -- -- 31
2019-02-05 16:00:00 20.4 17 Este 26 Este 0 -- -- 28
2019-02-05 15:00:00 20.9 5 Sur 12 Este 0 -- -- 22
2019-02-05 14:00:00 20.4 6 Sudeste 13 Este 0 -- -- 23
2019-02-05 13:00:00 19 6 Sudeste 14 Sudeste 0 -- -- 24
2019-02-05 12:00:00 17.2 4 Sudeste 9 Este 0 -- -- 28
2019-02-05 11:00:00 13.7 4 Sudoeste 8 Sudoeste 0 -- -- 37
2019-02-05 10:00:00 9 4 Sudoeste 10 Noroeste 0 -- -- 48
2019-02-05 09:00:00 6.6 8 Noroeste 13 Noroeste 0 -- -- 50
2019-02-05 08:00:00 4.8 5 Oeste 11 Noroeste 0 -- -- 54
2019-02-05 07:00:00 5.6 7 Noroeste 13 Noroeste 0 -- -- 50
2019-02-05 06:00:00 5.6 7 Noroeste 10 Noroeste 0 -- -- 51
2019-02-05 05:00:00 4.9 4 Oeste 12 Noroeste 0 -- -- 54
2019-02-05 04:00:00 5.6 9 Noroeste 12 Noroeste 0 -- -- 51
2019-02-05 03:00:00 6 9 Noroeste 10 Noroeste 0 -- -- 50
2019-02-05 02:00:00 6.6 7 Norte 12 Noroeste 0 -- -- 50
2019-02-05 01:00:00 5.9 3 Noroeste 12 Noroeste 0 -- -- 55
2019-02-05 00:00:00 6.6 8 Noroeste 13 Noroeste 0 -- -- 59
2019-02-04 23:00:00 6.7 8 Norte 11 Norte 0 -- -- 69
2019-02-04 22:00:00 7.2 8 Noroeste 9 Noroeste 0 -- -- 66
2019-02-04 21:00:00 8.2 4 Oeste 6 Noroeste 0 -- -- 62
2019-02-04 20:00:00 9.3 4 Noroeste 8 Este 0 -- -- 59
2019-02-04 19:00:00 11 6 Sudeste 15 Este 0 -- -- 52
2019-02-04 18:00:00 13.9 12 Este 16 Este 0 -- -- 44
2019-02-04 17:00:00 17.3 8 Sudeste 14 Sudeste 0 -- -- 37
2019-02-04 16:00:00 17.8 9 Sudeste 19 Este 0 -- -- 28
2019-02-04 15:00:00 17.2 10 Este 22 Este 0 -- -- 25
2019-02-04 14:00:00 17 9 Este 23 Este 0 -- -- 25
2019-02-04 13:00:00 16.4 15 Este 23 Este 0 -- -- 27
2019-02-04 12:00:00 14.7 12 Sudoeste 17 Sudoeste 0 -- -- 27
2019-02-04 11:00:00 10.4 6 Sudoeste 14 Sudoeste 0 -- -- 35
2019-02-04 10:00:00 6.6 5 Sudoeste 10 Sudeste 0 -- -- 43
2019-02-04 09:00:00 4.4 5 Noroeste 19 Oeste 0 -- -- 45
2019-02-04 08:00:00 4.7 19 Oeste 35 Oeste 0 -- -- 44
2019-02-04 07:00:00 4.6 17 Oeste 30 Sudoeste 0 -- -- 45
2019-02-04 06:00:00 4.3 3 Oeste 17 Oeste 0 -- -- 45
2019-02-04 05:00:00 4.6 7 Oeste 39 Oeste 0 -- -- 46
2019-02-04 04:00:00 5.5 21 Oeste 43 Oeste 0 -- -- 43
2019-02-04 03:00:00 5.3 24 Oeste 34 Oeste 0 -- -- 44
2019-02-04 02:00:00 4.7 19 Oeste 28 Oeste 0 -- -- 46
2019-02-04 01:00:00 4.3 15 Oeste 29 Oeste 0 -- -- 47
2019-02-04 00:00:00 5.4 20 Oeste 32 Oeste 0 -- -- 44
2019-02-03 23:00:00 5.6 19 Oeste 39 Oeste 0 -- -- 45
2019-02-03 22:00:00 6.6 32 Oeste 42 Oeste 0 -- -- 42
2019-02-03 21:00:00 7.1 22 Oeste 45 Oeste 0 -- -- 41
2019-02-03 20:00:00 7.4 26 Oeste 54 Sudoeste 0 -- -- 41
2019-02-03 19:00:00 7.8 18 Oeste 31 Sudoeste 0 -- -- 39
2019-02-03 18:00:00 10.4 19 Oeste 43 Oeste 0 -- -- 33
2019-02-03 17:00:00 12.8 25 Oeste 39 Noroeste 0 -- -- 28
2019-02-03 16:00:00 12.6 27 Oeste 53 Oeste 0 -- -- 28
2019-02-03 15:00:00 12.3 37 Oeste 53 Sudoeste 0 -- -- 28
2019-02-03 14:00:00 11.3 33 Oeste 52 Sudoeste 0 -- -- 31
2019-02-03 13:00:00 10.6 30 Oeste 50 Sudoeste 0 -- -- 30
2019-02-03 12:00:00 9.6 28 Oeste 49 Sudoeste 0 -- -- 32
2019-02-03 11:00:00 7.6 27 Oeste 52 Sudoeste 0 -- -- 40
2019-02-03 10:00:00 5.6 30 Oeste 54 Sudoeste 0 -- -- 49
2019-02-03 09:00:00 4.1 31 Sudoeste 49 Sudoeste 0 -- -- 55
2019-02-03 08:00:00 3.5 27 Sudoeste 46 Sudoeste 0 -- -- 60
2019-02-03 07:00:00 3.6 24 Sudoeste 39 Sudoeste 0 -- -- 61
2019-02-03 06:00:00 4.1 22 Sudoeste 35 Sudoeste 0 -- -- 57
2019-02-03 05:00:00 3.2 13 Oeste 26 Oeste 0 -- -- 60
2019-02-03 04:00:00 3.8 20 Oeste 38 Oeste 0 -- -- 58
2019-02-03 03:00:00 3.7 21 Oeste 32 Sudoeste 0 -- -- 60
2019-02-03 02:00:00 4.3 27 Oeste 37 Oeste 0 -- -- 62
2019-02-03 01:00:00 4.5 26 Oeste 36 Oeste 0 -- -- 64
2019-02-03 00:00:00 4.7 25 Oeste 37 Oeste 0 -- -- 67
2019-02-02 23:00:00 4.1 12 Oeste 28 Oeste 0 -- -- 74
2019-02-02 22:00:00 4.4 23 Oeste 41 Oeste 0 -- -- 75
2019-02-02 21:00:00 4.6 27 Oeste 54 Sudoeste 0.2 -- -- 79
2019-02-02 20:00:00 4.3 23 Oeste 42 Noroeste 0.6 -- -- 87
2019-02-02 19:00:00 5.2 26 Oeste 61 Oeste 0 -- -- 78
2019-02-02 18:00:00 8.5 31 Oeste 51 Oeste 0 -- -- 51
2019-02-02 17:00:00 10.9 29 Oeste 64 Oeste 0 -- -- 42
2019-02-02 16:00:00 11.5 45 Oeste 71 Oeste 0 -- -- 42
2019-02-02 15:00:00 11.6 49 Oeste 76 Oeste 0 -- -- 42
2019-02-02 14:00:00 10.5 42 Oeste 64 Oeste 0 -- -- 47
2019-02-02 13:00:00 10.6 42 Oeste 69 Oeste 0 -- -- 48
2019-02-02 12:00:00 9.1 46 Oeste 85 Oeste 0 -- -- 54
2019-02-02 11:00:00 8.1 60 Oeste 91 Oeste 0 -- -- 55
2019-02-02 10:00:00 7.3 46 Oeste 79 Oeste 0 -- -- 57
2019-02-02 09:00:00 6.8 46 Oeste 85 Oeste 0 -- -- 58
2019-02-02 08:00:00 6.5 55 Oeste 79 Oeste 0 -- -- 63
2019-02-02 07:00:00 6.7 51 Oeste 87 Oeste 0 -- -- 61
2019-02-02 06:00:00 6.4 53 Oeste 77 Oeste 0 -- -- 64
2019-02-02 05:00:00 6.2 34 Oeste 46 Oeste 0 -- -- 64
2019-02-02 04:00:00 6.7 36 Oeste 56 Oeste 0 -- -- 58
2019-02-02 03:00:00 6.8 31 Oeste 67 Oeste 0 -- -- 62
2019-02-02 02:00:00 7 41 Oeste 71 Oeste 0 -- -- 64
2019-02-02 01:00:00 7.4 49 Oeste 80 Oeste 0 -- -- 61
2019-02-02 00:00:00 7.7 59 Oeste 81 Oeste 0 -- -- 60
2019-02-01 23:00:00 7.4 44 Oeste 76 Oeste 0.2 -- -- 63
2019-02-01 22:00:00 7 44 Oeste 67 Oeste 0 -- -- 74
2019-02-01 21:00:00 5.7 34 Oeste 102 Oeste 0.4 -- -- 89
2019-02-01 20:00:00 11 50 Oeste 79 Oeste 0 -- -- 45
2019-02-01 19:00:00 10.7 30 Oeste 59 Oeste 0 -- -- 46
2019-02-01 18:00:00 12.2 35 Oeste 66 Oeste 0 -- -- 45
2019-02-01 17:00:00 13.8 49 Oeste 76 Oeste 0 -- -- 38
2019-02-01 16:00:00 14.3 47 Oeste 66 Oeste 0 -- -- 38
2019-02-01 15:00:00 14.4 50 Oeste 77 Oeste 0 -- -- 52
2019-02-01 14:00:00 15.7 41 Oeste 68 Oeste 0 -- -- 47
2019-02-01 13:00:00 14.3 44 Oeste 77 Oeste 0 -- -- 51
2019-02-01 12:00:00 11.9 50 Oeste 71 Oeste 0 -- -- 69
2019-02-01 11:00:00 15.9 37 Oeste 59 Oeste 0 -- -- 59
2019-02-01 10:00:00 15 22 Oeste 46 Oeste 0 -- -- 59
2019-02-01 09:00:00 11.5 8 Norte 15 Norte 0 -- -- 73
2019-02-01 08:00:00 10.4 12 Nordeste 17 Norte 0 -- -- 73
2019-02-01 07:00:00 10.7 13 Norte 18 Norte 0 -- -- 70
2019-02-01 06:00:00 10.4 7 Nordeste 13 Nordeste 0 -- -- 70
2019-02-01 05:00:00 10.8 8 Este 19 Este 0 -- -- 67
2019-02-01 04:00:00 11.5 9 Este 18 Este 0 -- -- 64
2019-02-01 03:00:00 12.1 8 Este 18 Sudeste 0 -- -- 60
2019-02-01 02:00:00 12.7 3 Noroeste 15 Oeste 0 -- -- 58
2019-02-01 01:00:00 13.8 11 Oeste 20 Sudoeste 0 -- -- 58
2019-02-01 00:00:00 13.5 4 Oeste 24 Oeste 0 -- -- 58
2019-01-31 23:00:00 14.3 20 Oeste 50 Oeste 0 -- -- 56
2019-01-31 22:00:00 13.8 18 Sudoeste 29 Sudoeste 0 -- -- 55
2019-01-31 21:00:00 13.8 20 Oeste 52 Oeste 0 -- -- 53
2019-01-31 20:00:00 14.1 32 Oeste 57 Oeste 0 -- -- 53
2019-01-31 19:00:00 14.5 35 Oeste 59 Oeste 0 -- -- 54
2019-01-31 18:00:00 15.3 32 Oeste 57 Oeste 0 -- -- 51
2019-01-31 17:00:00 16.7 35 Oeste 82 Oeste 0 -- -- 47
2019-01-31 16:00:00 18.3 44 Oeste 66 Oeste 0 -- -- 43
2019-01-31 15:00:00 18.8 46 Oeste 67 Oeste 0 -- -- 43
2019-01-31 14:00:00 18.6 45 Oeste 65 Oeste 0 -- -- 47
2019-01-31 13:00:00 17.1 37 Oeste 59 Oeste 0 -- -- 53
2019-01-31 12:00:00 15.6 38 Oeste 54 Oeste 0 -- -- 58
2019-01-31 11:00:00 14.9 27 Oeste 51 Oeste 0 -- -- 58
2019-01-31 10:00:00 13.1 17 Noroeste 40 Oeste 0 -- -- 66
2019-01-31 09:00:00 12.2 25 Oeste 57 Oeste 0 -- -- 70
2019-01-31 08:00:00 12.3 30 Oeste 50 Oeste 0 -- -- 68
2019-01-31 07:00:00 12.3 27 Oeste 57 Oeste 0 -- -- 66
2019-01-31 06:00:00 12.5 33 Oeste 68 Oeste 0 -- -- 62
2019-01-31 05:00:00 12 42 Oeste 60 Oeste 0 -- -- 63
2019-01-31 04:00:00 11.5 30 Oeste 55 Oeste 0 -- -- 63
2019-01-31 03:00:00 11.9 33 Oeste 58 Oeste 0 -- -- 61
2019-01-31 02:00:00 12 36 Oeste 57 Oeste 0 -- -- 59
2019-01-31 01:00:00 12.2 36 Oeste 62 Oeste 0 -- -- 59
2019-01-31 00:00:00 12.1 32 Oeste 49 Oeste 0 -- -- 58
2019-01-30 23:00:00 11.2 29 Oeste 55 Oeste 0 -- -- 60
2019-01-30 22:00:00 10.9 35 Oeste 60 Sudoeste 0 -- -- 58
2019-01-30 21:00:00 11.2 46 Oeste 66 Oeste 0 -- -- 52
2019-01-30 20:00:00 11 32 Oeste 48 Oeste 0 -- -- 49
2019-01-30 19:00:00 11.3 27 Oeste 48 Oeste 0 -- -- 47
2019-01-30 18:00:00 12.1 32 Oeste 51 Oeste 0 -- -- 45
2019-01-30 17:00:00 13.8 30 Oeste 47 Oeste 0 -- -- 41
2019-01-30 16:00:00 13.8 31 Oeste 50 Oeste 0 -- -- 42
2019-01-30 15:00:00 14.1 32 Oeste 49 Oeste 0 -- -- 41
2019-01-30 14:00:00 13.4 36 Oeste 51 Oeste 0 -- -- 41
2019-01-30 13:00:00 13.4 35 Oeste 57 Oeste 0 -- -- 43
2019-01-30 12:00:00 12.6 37 Oeste 62 Oeste 0 -- -- 47
2019-01-30 11:00:00 11.7 26 Oeste 45 Oeste 0 -- -- 54
2019-01-30 10:00:00 10.4 21 Oeste 29 Oeste 0 -- -- 61
2019-01-30 09:00:00 9.5 19 Oeste 31 Oeste 0 -- -- 64
2019-01-30 08:00:00 9.4 14 Oeste 28 Sudoeste 0 -- -- 64
2019-01-30 07:00:00 10 19 Oeste 44 Oeste 0 -- -- 59
2019-01-30 06:00:00 10.2 22 Oeste 44 Oeste 0 -- -- 62
2019-01-30 05:00:00 10.9 31 Oeste 46 Oeste 0 -- -- 63
2019-01-30 04:00:00 11 16 Oeste 51 Oeste 0 -- -- 65
2019-01-30 03:00:00 11 38 Oeste 57 Oeste 0 -- -- 64
2019-01-30 02:00:00 11.2 40 Oeste 60 Oeste 0 -- -- 64
2019-01-30 01:00:00 11.3 34 Oeste 59 Noroeste 0 -- -- 62
2019-01-30 00:00:00 11.5 26 Oeste 66 Oeste 0 -- -- 60
2019-01-29 23:00:00 11.5 34 Oeste 58 Oeste 0 -- -- 59
2019-01-29 22:00:00 11.7 23 Oeste 46 Oeste 0 -- -- 57
2019-01-29 21:00:00 11.9 25 Oeste 52 Oeste 0 -- -- 56
2019-01-29 20:00:00 11.9 37 Oeste 73 Oeste 0 -- -- 58
2019-01-29 19:00:00 12.2 39 Oeste 67 Oeste 0 -- -- 54
2019-01-29 18:00:00 12.9 18 Oeste 71 Oeste 0 -- -- 52
2019-01-29 17:00:00 14.1 39 Oeste 64 Oeste 0 -- -- 50
2019-01-29 16:00:00 15.8 36 Oeste 52 Oeste 0 -- -- 46
2019-01-29 15:00:00 16.6 30 Oeste 57 Oeste 0 -- -- 44
2019-01-29 14:00:00 16.1 41 Oeste 63 Oeste 0 -- -- 44
2019-01-29 13:00:00 15.3 45 Oeste 62 Oeste 0 -- -- 47
2019-01-29 12:00:00 12.7 31 Oeste 49 Oeste 0 -- -- 54
2019-01-29 11:00:00 11.2 35 Oeste 63 Oeste 0 -- -- 58
2019-01-29 10:00:00 10.4 35 Oeste 49 Oeste 0 -- -- 61
2019-01-29 09:00:00 9.5 34 Oeste 49 Oeste 0 -- -- 63
2019-01-29 08:00:00 8.5 29 Oeste 41 Oeste 0 -- -- 67
2019-01-29 07:00:00 8.9 24 Oeste 52 Noroeste 0 -- -- 67
2019-01-29 06:00:00 9.2 24 Oeste 51 Oeste 0 -- -- 65
2019-01-29 05:00:00 10.1 39 Oeste 55 Oeste 0 -- -- 62
2019-01-29 04:00:00 9.8 30 Oeste 47 Oeste 0 -- -- 63
2019-01-29 03:00:00 9.5 21 Oeste 34 Oeste 0 -- -- 65
2019-01-29 02:00:00 9.4 17 Noroeste 22 Noroeste 0 -- -- 65
2019-01-29 01:00:00 9.2 4 Sudeste 27 Oeste 0 -- -- 64
2019-01-29 00:00:00 10.5 17 Oeste 30 Oeste 0 -- -- 61
2019-01-28 23:00:00 10.7 12 Oeste 52 Oeste 0 -- -- 60
2019-01-28 22:00:00 11.4 42 Oeste 64 Oeste 0 -- -- 58
2019-01-28 21:00:00 11.3 47 Oeste 76 Oeste 0 -- -- 56
2019-01-28 20:00:00 10.9 36 Oeste 59 Oeste 0 -- -- 56
2019-01-28 19:00:00 10.5 39 Oeste 76 Oeste 0 -- -- 55
2019-01-28 18:00:00 12.2 51 Oeste 69 Oeste 0 -- -- 47
2019-01-28 17:00:00 16.1 41 Oeste 63 Oeste 0 -- -- 34
2019-01-28 16:00:00 18 31 Oeste 61 Oeste 0 -- -- 30
2019-01-28 15:00:00 19.1 36 Oeste 56 Oeste 0 -- -- 24
2019-01-28 14:00:00 17.5 37 Oeste 57 Oeste 0 -- -- 27
2019-01-28 13:00:00 16.8 27 Sudoeste 64 Oeste 0 -- -- 29
2019-01-28 12:00:00 14.1 32 Oeste 51 Oeste 0 -- -- 36
2019-01-28 11:00:00 11 19 Sudoeste 55 Oeste 0 -- -- 49
2019-01-28 10:00:00 8.4 14 Oeste 28 Sudoeste 0 -- -- 58
2019-01-28 09:00:00 7.6 20 Sudoeste 57 Oeste 0 -- -- 59
2019-01-28 08:00:00 7.8 41 Oeste 61 Oeste 0 -- -- 59
2019-01-28 07:00:00 7.5 27 Oeste 48 Oeste 0 -- -- 60
2019-01-28 06:00:00 8 35 Oeste 50 Oeste 0 -- -- 60
2019-01-28 05:00:00 7.7 20 Oeste 44 Oeste 0 -- -- 61
2019-01-28 04:00:00 8.4 32 Oeste 51 Oeste 0 -- -- 59
2019-01-28 03:00:00 9 33 Oeste 46 Oeste 0 -- -- 58
2019-01-28 02:00:00 7.6 11 Oeste 24 Oeste 0 -- -- 63
2019-01-28 01:00:00 7.3 8 Oeste 24 Oeste 0 -- -- 63
2019-01-28 00:00:00 8.5 22 Oeste 32 Oeste 0 -- -- 59
2019-01-27 23:00:00 8.7 12 Oeste 29 Oeste 0 -- -- 58
2019-01-27 22:00:00 9.1 15 Oeste 34 Oeste 0 -- -- 57
2019-01-27 21:00:00 10.3 17 Noroeste 47 Oeste 0 -- -- 55
2019-01-27 20:00:00 10.7 32 Oeste 61 Oeste 0 -- -- 56
2019-01-27 19:00:00 11.2 27 Oeste 64 Oeste 0 -- -- 54
2019-01-27 18:00:00 13.1 49 Oeste 68 Oeste 0 -- -- 46
2019-01-27 17:00:00 15.3 39 Oeste 76 Oeste 0 -- -- 39
2019-01-27 16:00:00 16.2 49 Oeste 71 Oeste 0 -- -- 41
2019-01-27 15:00:00 16 52 Oeste 67 Oeste 0 -- -- 39
2019-01-27 14:00:00 16.7 38 Oeste 62 Oeste 0 -- -- 38
2019-01-27 13:00:00 14.7 51 Oeste 72 Oeste 0 -- -- 42
2019-01-27 12:00:00 15.1 48 Oeste 64 Sudoeste 0 -- -- 42
2019-01-27 11:00:00 14.4 42 Oeste 73 Oeste 0 -- -- 48
2019-01-27 10:00:00 12.3 45 Oeste 64 Oeste 0 -- -- 56
2019-01-27 09:00:00 11.5 40 Oeste 61 Oeste 0 -- -- 58
2019-01-27 08:00:00 11.7 42 Oeste 72 Oeste 0 -- -- 55
2019-01-27 07:00:00 12.2 32 Oeste 50 Oeste 0 -- -- 49
2019-01-27 06:00:00 12.4 35 Oeste 64 Oeste 0 -- -- 49
2019-01-27 05:00:00 11.9 32 Oeste 46 Oeste 0 -- -- 51
2019-01-27 04:00:00 11.5 25 Oeste 44 Oeste 0 -- -- 52
2019-01-27 03:00:00 11.8 23 Sudoeste 41 Oeste 0 -- -- 51
2019-01-27 02:00:00 12.2 19 Sudoeste 33 Sudoeste 0 -- -- 46
2019-01-27 01:00:00 11.9 24 Sudoeste 32 Sudoeste 0 -- -- 48
2019-01-27 00:00:00 10.4 11 Oeste 16 Oeste 0 -- -- 55
2019-01-26 23:00:00 10 10 Noroeste 15 Noroeste 0 -- -- 57
2019-01-26 22:00:00 9.8 10 Noroeste 15 Noroeste 0 -- -- 62
2019-01-26 21:00:00 10.4 4 Noroeste 8 Noroeste 0 -- -- 68
2019-01-26 20:00:00 10.6 7 Noroeste 13 Noroeste 0 -- -- 68
2019-01-26 19:00:00 13 0 Calma 3 Sudeste 0 -- -- 58
2019-01-26 18:00:00 15.4 4 Sudeste 14 Sur 0 -- -- 51
2019-01-26 17:00:00 18.3 8 Sudeste 18 Sudeste 0 -- -- 46
2019-01-26 16:00:00 19.6 9 Sudeste 17 Este 0 -- -- 43
2019-01-26 15:00:00 19.8 6 Sudeste 15 Sudeste 0 -- -- 39
2019-01-26 14:00:00 19.3 6 Sur 13 Sur 0 -- -- 37
2019-01-26 13:00:00 17.9 5 Sur 12 Sudoeste 0 -- -- 39
2019-01-26 12:00:00 16.3 6 Este 13 Sudeste 0 -- -- 44
2019-01-26 11:00:00 13.6 0 Calma 7 Sur 0 -- -- 50
2019-01-26 10:00:00 10.8 0 Calma 13 Noroeste 0 -- -- 59
2019-01-26 09:00:00 6.8 6 Noroeste 14 Noroeste 0 -- -- 66
2019-01-26 08:00:00 6.2 6 Noroeste 13 Noroeste 0 -- -- 68
2019-01-26 07:00:00 7.3 8 Noroeste 13 Noroeste 0 -- -- 64
2019-01-26 06:00:00 8.3 5 Noroeste 15 Noroeste 0 -- -- 60
2019-01-26 05:00:00 8.1 13 Noroeste 18 Noroeste 0 -- -- 63
2019-01-26 04:00:00 7.8 9 Noroeste 24 Oeste 0 -- -- 66
2019-01-26 03:00:00 10.2 12 Noroeste 31 Oeste 0 -- -- 58
2019-01-26 02:00:00 9.7 14 Noroeste 28 Oeste 0 -- -- 62
2019-01-26 01:00:00 12.2 20 Oeste 34 Oeste 0 -- -- 54
2019-01-26 00:00:00 12 13 Oeste 32 Sudoeste 0 -- -- 55
2019-01-25 23:00:00 11.2 14 Oeste 29 Oeste 0 -- -- 59
2019-01-25 22:00:00 12.6 18 Oeste 29 Oeste 0 -- -- 55
2019-01-25 21:00:00 13 18 Oeste 28 Oeste 0 -- -- 55
2019-01-25 20:00:00 13.7 18 Oeste 28 Oeste 0 -- -- 53
2019-01-25 19:00:00 14.7 13 Oeste 23 Oeste 0 -- -- 51
2019-01-25 18:00:00 17.6 22 Oeste 33 Oeste 0 -- -- 44
2019-01-25 17:00:00 20 25 Oeste 32 Oeste 0 -- -- 38
2019-01-25 16:00:00 21.1 18 Oeste 40 Sudoeste 0 -- -- 36
2019-01-25 15:00:00 20.6 18 Oeste 36 Sudoeste 0 -- -- 37
2019-01-25 14:00:00 19.6 24 Oeste 39 Sudoeste 0 -- -- 39
2019-01-25 13:00:00 18.4 26 Oeste 41 Oeste 0 -- -- 42
2019-01-25 12:00:00 16.6 32 Oeste 45 Oeste 0 -- -- 46
2019-01-25 11:00:00 15.2 23 Sudoeste 39 Sudoeste 0 -- -- 52
2019-01-25 10:00:00 12.7 25 Sudoeste 39 Sudoeste 0 -- -- 62
2019-01-25 09:00:00 10.5 19 Sudoeste 32 Oeste 0 -- -- 70
2019-01-25 08:00:00 10.8 22 Oeste 39 Oeste 0 -- -- 69
2019-01-25 07:00:00 10.5 18 Oeste 32 Oeste 0 -- -- 71
2019-01-25 06:00:00 11.1 20 Oeste 36 Oeste 0 -- -- 70
2019-01-25 05:00:00 10.1 18 Oeste 30 Sudoeste 0 -- -- 75
2019-01-25 04:00:00 11.4 22 Oeste 40 Oeste 0 -- -- 70
2019-01-25 03:00:00 11.7 27 Oeste 40 Oeste 0 -- -- 69
2019-01-25 02:00:00 12.1 28 Oeste 44 Oeste 0 -- -- 67
2019-01-25 01:00:00 12.4 33 Oeste 45 Oeste 0 -- -- 67
2019-01-25 00:00:00 12.7 30 Oeste 46 Oeste 0 -- -- 64
2019-01-24 23:00:00 13 31 Oeste 43 Oeste 0 -- -- 62
2019-01-24 22:00:00 13 27 Oeste 38 Oeste 0 -- -- 60
2019-01-24 21:00:00 13 21 Oeste 36 Sudoeste 0 -- -- 60
2019-01-24 20:00:00 13.1 26 Sudoeste 39 Oeste 0 -- -- 60
2019-01-24 19:00:00 13.5 28 Oeste 49 Sudoeste 0 -- -- 58
2019-01-24 18:00:00 14.8 26 Oeste 42 Sudoeste 0 -- -- 53
2019-01-24 17:00:00 15.7 28 Oeste 46 Oeste 0 -- -- 50
2019-01-24 16:00:00 16.3 32 Oeste 52 Oeste 0 -- -- 50
2019-01-24 15:00:00 16 23 Oeste 46 Oeste 0 -- -- 50
2019-01-24 14:00:00 15.3 27 Oeste 46 Oeste 0 -- -- 53
2019-01-24 13:00:00 14.6 27 Oeste 46 Oeste 0 -- -- 56
2019-01-24 12:00:00 14 33 Oeste 52 Oeste 0 -- -- 57
2019-01-24 11:00:00 12.4 36 Oeste 48 Oeste 0 -- -- 62
2019-01-24 10:00:00 11.5 22 Oeste 39 Sudoeste 0 -- -- 66
2019-01-24 09:00:00 10.7 28 Oeste 50 Oeste 0 -- -- 68
2019-01-24 08:00:00 10.8 29 Oeste 54 Oeste 0 -- -- 66
2019-01-24 07:00:00 10.3 5 Este 50 Oeste 0 -- -- 68
2019-01-24 06:00:00 11.3 40 Oeste 70 Oeste 0 -- -- 65
2019-01-24 05:00:00 11.1 45 Oeste 76 Oeste 0 -- -- 65
2019-01-24 04:00:00 11.3 41 Oeste 72 Oeste 0 -- -- 64
2019-01-24 03:00:00 11.7 46 Oeste 75 Oeste 0 -- -- 62
2019-01-24 02:00:00 11.8 37 Oeste 64 Oeste 0 -- -- 62
2019-01-24 01:00:00 12 39 Oeste 71 Oeste 0 -- -- 61
2019-01-24 00:00:00 12.1 39 Oeste 70 Oeste 0 -- -- 61